PWSweather.com
Personal Weather Stations
Station Observations
KTXDECATUR
Wildwood, Decatur, TX 76234

WildwoodDecatur, TX 76234

Lat: 33.2634, Lon: -97.6651

Elevation: 800

Station Type: Davis Vantage Pro 2

http://weather.wildwoodnaturist.com

Latest ConditionsUpdated 8:10:12 PM CDT Tuesday, Jul 22, 2014
Currently Today's Max Today's Min Today's Average
Temperature 89.0°F31.7°C 94.6°F34.8°C 76.5°F24.7°C 85.1°F29.5°C
Dew Point 76.1°F24.5°C 78.9°F26.1°C 72.2°F22.3°C 74.9°F23.8°C
Winds Calm Calm 6.6 mph SE10.6 kmh SE - 2.8 mph 4.5 kmh
Wind Gusts -- 10.7 mph17.2 kmh - -
Humidity 66% 90% 51% 73%
Pressure 29.99 in1015.6 mb 30.05 in1017.6 mb 29.96 in1014.6 mb -
Hour Temp Dew Point Humidity Winds Wind Gusts Pressure Precip Precip Rate Daily Precip Total
08:10 PM 89.0°F31.7°C 76.1°F24.5°C 66% Calm Calm -- 29.99 in1015.6 mb 0.00 in0.0 mm 0.00 in/hr0.0 mm/hr 0.00 in0.0 mm
08:00 PM 89.5°F31.9°C 75.7°F24.3°C 64% Calm Calm -- 29.98 in1015.2 mb 0.00 in0.0 mm 0.00 in/hr0.0 mm/hr 0.00 in0.0 mm
07:50 PM 90.1°F32.3°C 76.3°F24.6°C 64% 1.6 mph E2.6 kmh E 3.2 mph5.1 kmh 29.98 in1015.2 mb 0.00 in0.0 mm 0.00 in/hr0.0 mm/hr 0.00 in0.0 mm
07:40 PM 90.7°F32.6°C 76.4°F24.7°C 63% 2.3 mph E3.7 kmh E 3.2 mph5.1 kmh 29.98 in1015.2 mb 0.00 in0.0 mm 0.00 in/hr0.0 mm/hr 0.00 in0.0 mm
07:30 PM 91.3°F32.9°C 75.9°F24.4°C 61% 0.9 mph E1.4 kmh E 3.2 mph5.1 kmh 29.98 in1015.2 mb 0.00 in0.0 mm 0.00 in/hr0.0 mm/hr 0.00 in0.0 mm
07:20 PM 91.7°F33.2°C 75.3°F24.1°C 59% 2.1 mph ENE3.4 kmh ENE 4.3 mph6.9 kmh 29.98 in1015.2 mb 0.00 in0.0 mm 0.00 in/hr0.0 mm/hr 0.00 in0.0 mm
07:10 PM 92.0°F33.3°C 74.6°F23.7°C 57% 4.2 mph ENE6.8 kmh ENE 6.4 mph10.3 kmh 29.98 in1015.2 mb 0.00 in0.0 mm 0.00 in/hr0.0 mm/hr 0.00 in0.0 mm
07:00 PM 92.3°F33.5°C 75.4°F24.1°C 58% 0.9 mph ENE1.4 kmh ENE 5.3 mph8.5 kmh 29.98 in1015.2 mb 0.00 in0.0 mm 0.00 in/hr0.0 mm/hr 0.00 in0.0 mm
06:50 PM 92.6°F33.7°C 75.1°F23.9°C 57% 5.1 mph ENE8.2 kmh ENE 6.4 mph10.3 kmh 29.98 in1015.2 mb 0.00 in0.0 mm 0.00 in/hr0.0 mm/hr 0.00 in0.0 mm
06:40 PM 92.8°F33.8°C 74.8°F23.8°C 56% 0.9 mph E1.4 kmh E 3.2 mph5.1 kmh 29.98 in1015.2 mb 0.00 in0.0 mm 0.00 in/hr0.0 mm/hr 0.00 in0.0 mm
06:30 PM 92.9°F33.8°C 75.4°F24.1°C 57% 2.7 mph E4.3 kmh E 4.3 mph6.9 kmh 29.98 in1015.2 mb 0.00 in0.0 mm 0.00 in/hr0.0 mm/hr 0.00 in0.0 mm
06:20 PM 92.9°F33.8°C 74.9°F23.8°C 56% 6.0 mph ENE9.7 kmh ENE 9.6 mph15.4 kmh 29.98 in1015.2 mb 0.00 in0.0 mm 0.00 in/hr0.0 mm/hr 0.00 in0.0 mm
06:10 PM 93.2°F34.0°C 76.2°F24.6°C 58% 2.9 mph E4.7 kmh E 6.4 mph10.3 kmh 29.98 in1015.2 mb 0.00 in0.0 mm 0.00 in/hr0.0 mm/hr 0.00 in0.0 mm
06:00 PM 93.3°F34.1°C 76.3°F24.6°C 58% 4.4 mph E7.1 kmh E 6.4 mph10.3 kmh 29.97 in1014.9 mb 0.00 in0.0 mm 0.00 in/hr0.0 mm/hr 0.00 in0.0 mm
05:50 PM 93.6°F34.2°C 75.5°F24.2°C 56% 4.7 mph ENE7.6 kmh ENE 7.5 mph12.1 kmh 29.98 in1015.2 mb 0.00 in0.0 mm 0.00 in/hr0.0 mm/hr 0.00 in0.0 mm
05:40 PM 94.2°F34.6°C 75.6°F24.2°C 55% 5.7 mph ENE9.2 kmh ENE 7.5 mph12.1 kmh 29.98 in1015.2 mb 0.00 in0.0 mm 0.00 in/hr0.0 mm/hr 0.00 in0.0 mm
05:30 PM 93.9°F34.4°C 74.7°F23.7°C 54% 0.6 mph ENE1.0 kmh ENE 2.1 mph3.4 kmh 29.98 in1015.2 mb 0.00 in0.0 mm 0.00 in/hr0.0 mm/hr 0.00 in0.0 mm
05:20 PM 94.0°F34.4°C 74.8°F23.8°C 54% 4.1 mph ENE6.6 kmh ENE 4.3 mph6.9 kmh 29.98 in1015.2 mb 0.00 in0.0 mm 0.00 in/hr0.0 mm/hr 0.00 in0.0 mm
05:10 PM 94.2°F34.6°C 74.4°F23.6°C 53% 2.7 mph ENE4.3 kmh ENE 6.4 mph10.3 kmh 29.98 in1015.2 mb 0.00 in0.0 mm 0.00 in/hr0.0 mm/hr 0.00 in0.0 mm
05:00 PM 94.3°F34.6°C 74.6°F23.7°C 53% 6.1 mph ENE9.8 kmh ENE 6.4 mph10.3 kmh 29.98 in1015.2 mb 0.00 in0.0 mm 0.00 in/hr0.0 mm/hr 0.00 in0.0 mm
04:50 PM 94.2°F34.6°C 74.4°F23.6°C 53% 1.0 mph E1.6 kmh E -- 29.98 in1015.2 mb 0.00 in0.0 mm 0.00 in/hr0.0 mm/hr 0.00 in0.0 mm
04:40 PM 94.3°F34.6°C 75.1°F23.9°C 54% 4.7 mph E7.6 kmh E 6.4 mph10.3 kmh 29.98 in1015.2 mb 0.00 in0.0 mm 0.00 in/hr0.0 mm/hr 0.00 in0.0 mm
04:30 PM 94.4°F34.7°C 74.6°F23.7°C 53% 3.6 mph E5.8 kmh E 5.3 mph8.5 kmh 29.98 in1015.2 mb 0.00 in0.0 mm 0.00 in/hr0.0 mm/hr 0.00 in0.0 mm
04:20 PM 94.0°F34.4°C 73.1°F22.8°C 51% 0.5 mph E0.8 kmh E 3.2 mph5.1 kmh 29.99 in1015.6 mb 0.00 in0.0 mm 0.00 in/hr0.0 mm/hr 0.00 in0.0 mm
04:10 PM 94.6°F34.8°C 74.2°F23.4°C 52% 4.7 mph ENE7.6 kmh ENE 6.4 mph10.3 kmh 29.99 in1015.6 mb 0.00 in0.0 mm 0.00 in/hr0.0 mm/hr 0.00 in0.0 mm
04:00 PM 94.4°F34.7°C 74.0°F23.3°C 52% 5.3 mph E8.5 kmh E 7.5 mph12.1 kmh 29.99 in1015.6 mb 0.00 in0.0 mm 0.00 in/hr0.0 mm/hr 0.00 in0.0 mm
03:50 PM 93.9°F34.4°C 74.7°F23.7°C 54% 5.8 mph ENE9.3 kmh ENE 6.4 mph10.3 kmh 29.99 in1015.6 mb 0.00 in0.0 mm 0.00 in/hr0.0 mm/hr 0.00 in0.0 mm
03:40 PM 93.2°F34.0°C 75.2°F24.0°C 56% 6.0 mph E9.7 kmh E 6.4 mph10.3 kmh 29.99 in1015.6 mb 0.00 in0.0 mm 0.00 in/hr0.0 mm/hr 0.00 in0.0 mm
03:30 PM 93.1°F33.9°C 76.1°F24.5°C 58% 2.5 mph E4.0 kmh E 6.4 mph10.3 kmh 29.99 in1015.6 mb 0.00 in0.0 mm 0.00 in/hr0.0 mm/hr 0.00 in0.0 mm
03:20 PM 92.8°F33.8°C 76.3°F24.6°C 59% 6.0 mph E9.7 kmh E 8.6 mph13.8 kmh 29.99 in1015.6 mb 0.00 in0.0 mm 0.00 in/hr0.0 mm/hr 0.00 in0.0 mm
03:10 PM 92.0°F33.3°C 76.6°F24.8°C 61% 4.0 mph E6.4 kmh E 8.6 mph13.8 kmh 30.00 in1015.9 mb 0.00 in0.0 mm 0.00 in/hr0.0 mm/hr 0.00 in0.0 mm
03:00 PM 92.2°F33.4°C 75.8°F24.3°C 59% 2.0 mph E3.2 kmh E 2.1 mph3.4 kmh 30.00 in1015.9 mb 0.00 in0.0 mm 0.00 in/hr0.0 mm/hr 0.00 in0.0 mm
02:50 PM 92.4°F33.6°C 77.0°F25.0°C 61% 3.6 mph E5.8 kmh E 7.5 mph12.1 kmh 29.99 in1015.6 mb 0.00 in0.0 mm 0.00 in/hr0.0 mm/hr 0.00 in0.0 mm
02:40 PM 92.6°F33.7°C 76.1°F24.5°C 59% 3.5 mph ESE5.6 kmh ESE 4.3 mph6.9 kmh 30.00 in1015.9 mb 0.00 in0.0 mm 0.00 in/hr0.0 mm/hr 0.00 in0.0 mm
02:30 PM 92.8°F33.8°C 75.8°F24.3°C 58% 3.3 mph ESE5.3 kmh ESE 6.4 mph10.3 kmh 30.00 in1015.9 mb 0.00 in0.0 mm 0.00 in/hr0.0 mm/hr 0.00 in0.0 mm
02:20 PM 92.1°F33.4°C 76.8°F24.9°C 61% 4.4 mph ESE7.1 kmh ESE 6.4 mph10.3 kmh 30.00 in1015.9 mb 0.00 in0.0 mm 0.00 in/hr0.0 mm/hr 0.00 in0.0 mm
02:10 PM 92.8°F33.8°C 75.8°F24.3°C 58% 6.2 mph ESE10.0 kmh ESE 7.5 mph12.1 kmh 30.00 in1015.9 mb 0.00 in0.0 mm 0.00 in/hr0.0 mm/hr 0.00 in0.0 mm
02:00 PM 92.6°F33.7°C 77.2°F25.1°C 61% 5.6 mph SSE9.0 kmh SSE 9.6 mph15.4 kmh 30.01 in1016.3 mb 0.00 in0.0 mm 0.00 in/hr0.0 mm/hr 0.00 in0.0 mm
01:50 PM 92.1°F33.4°C 77.2°F25.1°C 62% 4.1 mph SE6.6 kmh SE 5.3 mph8.5 kmh 30.01 in1016.3 mb 0.00 in0.0 mm 0.00 in/hr0.0 mm/hr 0.00 in0.0 mm
01:40 PM 91.9°F33.3°C 77.0°F25.0°C 62% 2.8 mph SE4.5 kmh SE 4.3 mph6.9 kmh 30.01 in1016.3 mb 0.00 in0.0 mm 0.00 in/hr0.0 mm/hr 0.00 in0.0 mm
01:30 PM 91.4°F33.0°C 76.1°F24.5°C 61% Calm Calm -- 30.01 in1016.3 mb 0.00 in0.0 mm 0.00 in/hr0.0 mm/hr 0.00 in0.0 mm
01:20 PM 90.9°F32.7°C 76.6°F24.8°C 63% 2.6 mph SSE4.2 kmh SSE 4.3 mph6.9 kmh 30.01 in1016.3 mb 0.00 in0.0 mm 0.00 in/hr0.0 mm/hr 0.00 in0.0 mm
01:10 PM 91.5°F33.1°C 76.6°F24.8°C 62% 4.8 mph SSE7.7 kmh SSE 7.5 mph12.1 kmh 30.02 in1016.6 mb 0.00 in0.0 mm 0.00 in/hr0.0 mm/hr 0.00 in0.0 mm
01:00 PM 91.0°F32.8°C 76.7°F24.8°C 63% 1.9 mph SSE3.1 kmh SSE 3.2 mph5.1 kmh 30.02 in1016.6 mb 0.00 in0.0 mm 0.00 in/hr0.0 mm/hr 0.00 in0.0 mm
12:50 PM 90.5°F32.5°C 78.5°F25.8°C 68% 1.3 mph SSE2.1 kmh SSE 5.3 mph8.5 kmh 30.02 in1016.6 mb 0.00 in0.0 mm 0.00 in/hr0.0 mm/hr 0.00 in0.0 mm
12:40 PM 90.4°F32.4°C 76.6°F24.8°C 64% 4.3 mph SSE6.9 kmh SSE 5.3 mph8.5 kmh 30.02 in1016.6 mb 0.00 in0.0 mm 0.00 in/hr0.0 mm/hr 0.00 in0.0 mm
12:30 PM 89.7°F32.1°C 77.3°F25.2°C 67% 4.5 mph SE7.2 kmh SE 5.3 mph8.5 kmh 30.02 in1016.6 mb 0.00 in0.0 mm 0.00 in/hr0.0 mm/hr 0.00 in0.0 mm
12:20 PM 89.6°F32.0°C 77.7°F25.4°C 68% 0.6 mph SE1.0 kmh SE 5.3 mph8.5 kmh 30.03 in1016.9 mb 0.00 in0.0 mm 0.00 in/hr0.0 mm/hr 0.00 in0.0 mm
12:10 PM 89.2°F31.8°C 77.3°F25.2°C 68% 0.3 mph SE0.5 kmh SE -- 30.02 in1016.6 mb 0.00 in0.0 mm 0.00 in/hr0.0 mm/hr 0.00 in0.0 mm
12:00 PM 89.4°F31.9°C 77.4°F25.2°C 68% 2.4 mph SE3.9 kmh SE 3.2 mph5.1 kmh 30.03 in1016.9 mb 0.00 in0.0 mm 0.00 in/hr0.0 mm/hr 0.00 in0.0 mm
11:50 AM 89.1°F31.7°C 78.9°F26.1°C 72% 0.5 mph SE0.8 kmh SE -- 30.03 in1016.9 mb 0.00 in0.0 mm 0.00 in/hr0.0 mm/hr 0.00 in0.0 mm
11:40 AM 88.6°F31.4°C 78.0°F25.6°C 71% 2.3 mph SE3.7 kmh SE 5.3 mph8.5 kmh 30.03 in1016.9 mb 0.00 in0.0 mm 0.00 in/hr0.0 mm/hr 0.00 in0.0 mm
11:30 AM 88.1°F31.2°C 77.9°F25.5°C 72% 3.9 mph SE6.3 kmh SE 5.3 mph8.5 kmh 30.03 in1016.9 mb 0.00 in0.0 mm 0.00 in/hr0.0 mm/hr 0.00 in0.0 mm
11:20 AM 87.8°F31.0°C 78.1°F25.6°C 73% 3.8 mph SE6.1 kmh SE 3.2 mph5.1 kmh 30.03 in1016.9 mb 0.00 in0.0 mm 0.00 in/hr0.0 mm/hr 0.00 in0.0 mm
11:10 AM 87.4°F30.8°C 77.7°F25.4°C 73% 0.1 mph SE0.2 kmh SE -- 30.03 in1016.9 mb 0.00 in0.0 mm 0.00 in/hr0.0 mm/hr 0.00 in0.0 mm
11:00 AM 87.0°F30.6°C 78.5°F25.8°C 76% 3.7 mph SE6.0 kmh SE 4.3 mph6.9 kmh 30.03 in1016.9 mb 0.00 in0.0 mm 0.00 in/hr0.0 mm/hr 0.00 in0.0 mm
10:51 AM 86.5°F30.3°C 78.4°F25.8°C 77% 2.3 mph SE3.7 kmh SE 4.3 mph6.9 kmh 30.03 in1016.9 mb 0.00 in0.0 mm 0.00 in/hr0.0 mm/hr 0.00 in0.0 mm
10:42 AM 85.9°F29.9°C 78.2°F25.7°C 78% 2.3 mph SE3.7 kmh SE 2.1 mph3.4 kmh 30.03 in1016.9 mb 0.00 in0.0 mm 0.00 in/hr0.0 mm/hr 0.00 in0.0 mm
10:30 AM 85.4°F29.7°C 78.1°F25.6°C 79% 0.8 mph SE1.3 kmh SE 5.3 mph8.5 kmh 30.03 in1016.9 mb 0.00 in0.0 mm 0.00 in/hr0.0 mm/hr 0.00 in0.0 mm
10:20 AM 84.7°F29.3°C 78.2°F25.7°C 81% 5.5 mph SE8.9 kmh SE 6.4 mph10.3 kmh 30.03 in1016.9 mb 0.00 in0.0 mm 0.00 in/hr0.0 mm/hr 0.00 in0.0 mm
10:10 AM 84.0°F28.9°C 77.5°F25.3°C 81% 2.3 mph SE3.7 kmh SE 9.6 mph15.4 kmh 30.04 in1017.3 mb 0.00 in0.0 mm 0.00 in/hr0.0 mm/hr 0.00 in0.0 mm
10:00 AM 83.4°F28.6°C 77.3°F25.2°C 82% 4.3 mph SE6.9 kmh SE 6.4 mph10.3 kmh 30.04 in1017.3 mb 0.00 in0.0 mm 0.00 in/hr0.0 mm/hr 0.00 in0.0 mm
09:50 AM 82.9°F28.3°C 76.9°F24.9°C 82% 3.8 mph SE6.1 kmh SE 6.4 mph10.3 kmh 30.04 in1017.3 mb 0.00 in0.0 mm 0.00 in/hr0.0 mm/hr 0.00 in0.0 mm
09:40 AM 82.3°F27.9°C 76.6°F24.8°C 83% 4.9 mph SE7.9 kmh SE 6.4 mph10.3 kmh 30.04 in1017.3 mb 0.00 in0.0 mm 0.00 in/hr0.0 mm/hr 0.00 in0.0 mm
09:30 AM 81.6°F27.6°C 75.9°F24.4°C 83% 2.5 mph SE4.0 kmh SE 6.4 mph10.3 kmh 30.04 in1017.3 mb 0.00 in0.0 mm 0.00 in/hr0.0 mm/hr 0.00 in0.0 mm
09:20 AM 81.1°F27.3°C 75.8°F24.3°C 84% 4.1 mph SE6.6 kmh SE 7.5 mph12.1 kmh 30.05 in1017.6 mb 0.00 in0.0 mm 0.00 in/hr0.0 mm/hr 0.00 in0.0 mm
09:10 AM 80.5°F26.9°C 76.0°F24.4°C 86% 4.4 mph SE7.1 kmh SE 5.3 mph8.5 kmh 30.05 in1017.6 mb 0.00 in0.0 mm 0.00 in/hr0.0 mm/hr 0.00 in0.0 mm
09:00 AM 79.9°F26.6°C 75.3°F24.1°C 86% 6.2 mph SE10.0 kmh SE 8.6 mph13.8 kmh 30.05 in1017.6 mb 0.00 in0.0 mm 0.00 in/hr0.0 mm/hr 0.00 in0.0 mm
08:50 AM 79.3°F26.3°C 75.4°F24.1°C 88% 4.0 mph ESE6.4 kmh ESE 5.3 mph8.5 kmh 30.04 in1017.3 mb 0.00 in0.0 mm 0.00 in/hr0.0 mm/hr 0.00 in0.0 mm
08:40 AM 78.7°F25.9°C 75.2°F24.0°C 89% 2.2 mph ESE3.5 kmh ESE 10.7 mph17.2 kmh 30.04 in1017.3 mb 0.00 in0.0 mm 0.00 in/hr0.0 mm/hr 0.00 in0.0 mm
08:30 AM 77.9°F25.5°C 74.4°F23.6°C 89% 1.7 mph SE2.7 kmh SE 4.3 mph6.9 kmh 30.04 in1017.3 mb 0.00 in0.0 mm 0.00 in/hr0.0 mm/hr 0.00 in0.0 mm
08:20 AM 77.5°F25.3°C 74.4°F23.6°C 90% 1.1 mph SE1.8 kmh SE -- 30.04 in1017.3 mb 0.00 in0.0 mm 0.00 in/hr0.0 mm/hr 0.00 in0.0 mm
08:10 AM 77.3°F25.2°C 74.1°F23.4°C 90% Calm Calm -- 30.04 in1017.3 mb 0.00 in0.0 mm 0.00 in/hr0.0 mm/hr 0.00 in0.0 mm
08:00 AM 77.0°F25.0°C 73.8°F23.2°C 90% 0.8 mph SE1.3 kmh SE 3.2 mph5.1 kmh 30.04 in1017.3 mb 0.00 in0.0 mm 0.00 in/hr0.0 mm/hr 0.00 in0.0 mm
07:50 AM 76.8°F24.9°C 73.6°F23.1°C 90% Calm Calm -- 30.03 in1016.9 mb 0.00 in0.0 mm 0.00 in/hr0.0 mm/hr 0.00 in0.0 mm
07:40 AM 76.7°F24.8°C 73.5°F23.1°C 90% Calm Calm -- 30.03 in1016.9 mb 0.00 in0.0 mm 0.00 in/hr0.0 mm/hr 0.00 in0.0 mm
07:30 AM 76.6°F24.8°C 73.4°F23.0°C 90% Calm Calm -- 30.02 in1016.6 mb 0.00 in0.0 mm 0.00 in/hr0.0 mm/hr 0.00 in0.0 mm
07:20 AM 76.5°F24.7°C 73.3°F22.9°C 90% 1.0 mph SE1.6 kmh SE 4.3 mph6.9 kmh 30.02 in1016.6 mb 0.00 in0.0 mm 0.00 in/hr0.0 mm/hr 0.00 in0.0 mm
07:10 AM 76.5°F24.7°C 73.3°F22.9°C 90% Calm Calm 1.1 mph1.8 kmh 30.02 in1016.6 mb 0.00 in0.0 mm 0.00 in/hr0.0 mm/hr 0.00 in0.0 mm
07:00 AM 76.5°F24.7°C 73.3°F22.9°C 90% Calm Calm -- 30.01 in1016.3 mb 0.00 in0.0 mm 0.00 in/hr0.0 mm/hr 0.00 in0.0 mm
06:50 AM 76.5°F24.7°C 73.3°F22.9°C 90% 0.6 mph SE1.0 kmh SE 4.3 mph6.9 kmh 30.00 in1015.9 mb 0.00 in0.0 mm 0.00 in/hr0.0 mm/hr 0.00 in0.0 mm
06:40 AM 76.5°F24.7°C 73.4°F23.0°C 90% 3.0 mph SE4.8 kmh SE 3.2 mph5.1 kmh 30.00 in1015.9 mb 0.00 in0.0 mm 0.00 in/hr0.0 mm/hr 0.00 in0.0 mm
06:30 AM 76.5°F24.7°C 73.3°F22.9°C 90% 2.7 mph SE4.3 kmh SE 5.3 mph8.5 kmh 30.00 in1015.9 mb 0.00 in0.0 mm 0.00 in/hr0.0 mm/hr 0.00 in0.0 mm
06:20 AM 76.5°F24.7°C 73.3°F22.9°C 90% 3.2 mph SE5.1 kmh SE 5.3 mph8.5 kmh 30.00 in1015.9 mb 0.00 in0.0 mm 0.00 in/hr0.0 mm/hr 0.00 in0.0 mm
06:10 AM 76.5°F24.7°C 73.0°F22.8°C 89% 2.5 mph SE4.0 kmh SE 5.3 mph8.5 kmh 30.00 in1015.9 mb 0.00 in0.0 mm 0.00 in/hr0.0 mm/hr 0.00 in0.0 mm
06:00 AM 76.6°F24.8°C 73.1°F22.8°C 89% 2.4 mph SE3.9 kmh SE 4.3 mph6.9 kmh 30.00 in1015.9 mb 0.00 in0.0 mm 0.00 in/hr0.0 mm/hr 0.00 in0.0 mm
05:50 AM 76.8°F24.9°C 73.0°F22.8°C 88% 2.3 mph SE3.7 kmh SE 2.1 mph3.4 kmh 29.99 in1015.6 mb 0.00 in0.0 mm 0.00 in/hr0.0 mm/hr 0.00 in0.0 mm
05:40 AM 77.0°F25.0°C 73.2°F22.9°C 88% 3.9 mph SE6.3 kmh SE 6.4 mph10.3 kmh 29.99 in1015.6 mb 0.00 in0.0 mm 0.00 in/hr0.0 mm/hr 0.00 in0.0 mm
05:30 AM 77.2°F25.1°C 73.0°F22.8°C 87% 3.8 mph SE6.1 kmh SE 4.3 mph6.9 kmh 29.99 in1015.6 mb 0.00 in0.0 mm 0.00 in/hr0.0 mm/hr 0.00 in0.0 mm
05:20 AM 77.4°F25.2°C 73.2°F22.9°C 87% 5.5 mph SE8.9 kmh SE 6.4 mph10.3 kmh 29.98 in1015.2 mb 0.00 in0.0 mm 0.00 in/hr0.0 mm/hr 0.00 in0.0 mm
05:10 AM 77.6°F25.3°C 73.1°F22.8°C 86% 4.6 mph SE7.4 kmh SE 6.4 mph10.3 kmh 29.98 in1015.2 mb 0.00 in0.0 mm 0.00 in/hr0.0 mm/hr 0.00 in0.0 mm
05:00 AM 77.8°F25.4°C 73.3°F22.9°C 86% 2.3 mph SE3.7 kmh SE 5.3 mph8.5 kmh 29.97 in1014.9 mb 0.00 in0.0 mm 0.00 in/hr0.0 mm/hr 0.00 in0.0 mm
04:50 AM 78.1°F25.6°C 73.2°F22.9°C 85% 4.6 mph SE7.4 kmh SE 6.4 mph10.3 kmh 29.96 in1014.6 mb 0.00 in0.0 mm 0.00 in/hr0.0 mm/hr 0.00 in0.0 mm
04:40 AM 78.3°F25.7°C 73.1°F22.8°C 84% 4.6 mph SE7.4 kmh SE 6.4 mph10.3 kmh 29.96 in1014.6 mb 0.00 in0.0 mm 0.00 in/hr0.0 mm/hr 0.00 in0.0 mm
04:30 AM 78.5°F25.8°C 73.3°F22.9°C 84% 5.3 mph SE8.5 kmh SE 6.4 mph10.3 kmh 29.96 in1014.6 mb 0.00 in0.0 mm 0.00 in/hr0.0 mm/hr 0.00 in0.0 mm
04:20 AM 78.7°F25.9°C 73.1°F22.8°C 83% 5.9 mph SE9.5 kmh SE 9.6 mph15.4 kmh 29.96 in1014.6 mb 0.00 in0.0 mm 0.00 in/hr0.0 mm/hr 0.00 in0.0 mm
04:10 AM 78.8°F26.0°C 73.2°F22.9°C 83% 4.2 mph SE6.8 kmh SE 6.4 mph10.3 kmh 29.96 in1014.6 mb 0.00 in0.0 mm 0.00 in/hr0.0 mm/hr 0.00 in0.0 mm
04:00 AM 78.8°F26.0°C 73.2°F22.9°C 83% 6.6 mph SE10.6 kmh SE 9.6 mph15.4 kmh 29.96 in1014.6 mb 0.00 in0.0 mm 0.00 in/hr0.0 mm/hr 0.00 in0.0 mm
03:50 AM 78.6°F25.9°C 73.0°F22.8°C 83% 5.5 mph SE8.9 kmh SE 7.5 mph12.1 kmh 29.96 in1014.6 mb 0.00 in0.0 mm 0.00 in/hr0.0 mm/hr 0.00 in0.0 mm
03:40 AM 77.9°F25.5°C 72.7°F22.6°C 84% 3.7 mph SE6.0 kmh SE 5.3 mph8.5 kmh 29.96 in1014.6 mb 0.00 in0.0 mm 0.00 in/hr0.0 mm/hr 0.00 in0.0 mm
03:30 AM 77.1°F25.1°C 72.3°F22.4°C 85% 1.0 mph SE1.6 kmh SE 5.3 mph8.5 kmh 29.96 in1014.6 mb 0.00 in0.0 mm 0.00 in/hr0.0 mm/hr 0.00 in0.0 mm
03:20 AM 77.1°F25.1°C 72.2°F22.3°C 85% 2.5 mph SE4.0 kmh SE 4.3 mph6.9 kmh 29.96 in1014.6 mb 0.00 in0.0 mm 0.00 in/hr0.0 mm/hr 0.00 in0.0 mm
03:10 AM 77.6°F25.3°C 72.3°F22.4°C 84% 2.0 mph SE3.2 kmh SE 5.3 mph8.5 kmh 29.96 in1014.6 mb 0.00 in0.0 mm 0.00 in/hr0.0 mm/hr 0.00 in0.0 mm
03:00 AM 78.4°F25.8°C 72.4°F22.4°C 82% 0.2 mph SE0.3 kmh SE 2.1 mph3.4 kmh 29.97 in1014.9 mb 0.00 in0.0 mm 0.00 in/hr0.0 mm/hr 0.00 in0.0 mm
02:50 AM 79.3°F26.3°C 72.9°F22.7°C 81% Calm Calm -- 29.97 in1014.9 mb 0.00 in0.0 mm 0.00 in/hr0.0 mm/hr 0.00 in0.0 mm
02:40 AM 79.8°F26.6°C 73.1°F22.8°C 80% 1.2 mph SE1.9 kmh SE 3.2 mph5.1 kmh 29.97 in1014.9 mb 0.00 in0.0 mm 0.00 in/hr0.0 mm/hr 0.00 in0.0 mm
02:30 AM 79.9°F26.6°C 72.8°F22.7°C 79% 0.7 mph SE1.1 kmh SE 1.1 mph1.8 kmh 29.97 in1014.9 mb 0.00 in0.0 mm 0.00 in/hr0.0 mm/hr 0.00 in0.0 mm
02:21 AM 80.1°F26.7°C 73.0°F22.8°C 79% 1.6 mph SE2.6 kmh SE 2.1 mph3.4 kmh 29.97 in1014.9 mb 0.00 in0.0 mm 0.00 in/hr0.0 mm/hr 0.00 in0.0 mm
02:10 AM 80.1°F26.7°C 73.0°F22.8°C 79% 3.0 mph SE4.8 kmh SE 5.3 mph8.5 kmh 29.97 in1014.9 mb 0.00 in0.0 mm 0.00 in/hr0.0 mm/hr 0.00 in0.0 mm
02:00 AM 80.2°F26.8°C 72.7°F22.6°C 78% 2.2 mph SE3.5 kmh SE 3.2 mph5.1 kmh 29.97 in1014.9 mb 0.00 in0.0 mm 0.00 in/hr0.0 mm/hr 0.00 in0.0 mm
01:50 AM 80.3°F26.8°C 72.8°F22.7°C 78% 1.6 mph SE2.6 kmh SE 5.3 mph8.5 kmh 29.97 in1014.9 mb 0.00 in0.0 mm 0.00 in/hr0.0 mm/hr 0.00 in0.0 mm
01:40 AM 80.4°F26.9°C 72.9°F22.7°C 78% 2.4 mph SE3.9 kmh SE 4.3 mph6.9 kmh 29.98 in1015.2 mb 0.00 in0.0 mm 0.00 in/hr0.0 mm/hr 0.00 in0.0 mm
01:30 AM 80.5°F26.9°C 73.0°F22.8°C 78% 2.6 mph SE4.2 kmh SE 4.3 mph6.9 kmh 29.98 in1015.2 mb 0.00 in0.0 mm 0.00 in/hr0.0 mm/hr 0.00 in0.0 mm
01:20 AM 80.6°F27.0°C 73.1°F22.8°C 78% 2.4 mph SE3.9 kmh SE 6.4 mph10.3 kmh 29.98 in1015.2 mb 0.00 in0.0 mm 0.00 in/hr0.0 mm/hr 0.00 in0.0 mm
01:10 AM 80.8°F27.1°C 72.9°F22.7°C 77% 1.6 mph SE2.6 kmh SE 3.2 mph5.1 kmh 29.98 in1015.2 mb 0.00 in0.0 mm 0.00 in/hr0.0 mm/hr 0.00 in0.0 mm
01:00 AM 81.1°F27.3°C 72.8°F22.7°C 76% 0.3 mph SE0.5 kmh SE 4.3 mph6.9 kmh 29.99 in1015.6 mb 0.00 in0.0 mm 0.00 in/hr0.0 mm/hr 0.00 in0.0 mm
12:50 AM 81.4°F27.4°C 73.1°F22.8°C 76% 1.2 mph SE1.9 kmh SE 3.2 mph5.1 kmh 29.99 in1015.6 mb 0.00 in0.0 mm 0.00 in/hr0.0 mm/hr 0.00 in0.0 mm
12:40 AM 81.8°F27.7°C 73.1°F22.8°C 75% 1.8 mph SE2.9 kmh SE 6.4 mph10.3 kmh 29.99 in1015.6 mb 0.00 in0.0 mm 0.00 in/hr0.0 mm/hr 0.00 in0.0 mm
12:30 AM 82.1°F27.8°C 73.0°F22.8°C 74% Calm Calm -- 29.99 in1015.6 mb 0.00 in0.0 mm 0.00 in/hr0.0 mm/hr 0.00 in0.0 mm
12:20 AM 82.5°F28.1°C 73.4°F23.0°C 74% 2.3 mph SE3.7 kmh SE 4.3 mph6.9 kmh 29.99 in1015.6 mb 0.00 in0.0 mm 0.00 in/hr0.0 mm/hr 0.00 in0.0 mm
12:10 AM 83.0°F28.3°C 73.4°F23.0°C 73% 1.5 mph SE2.4 kmh SE 3.2 mph5.1 kmh 29.99 in1015.6 mb 0.00 in0.0 mm 0.00 in/hr0.0 mm/hr 0.00 in0.0 mm
12:00 AM 83.3°F28.5°C 73.4°F23.0°C 72% 3.1 mph SE5.0 kmh SE 6.4 mph10.3 kmh 29.99 in1015.6 mb 0.00 in0.0 mm 0.00 in/hr0.0 mm/hr 0.00 in0.0 mm